Latest Coastal Weather Observations for Albion Park

IDN60701

Issued at 8:45 pm EDT Wednesday 22 October 2014 (issued every 10 minutes, with the page automatically refreshed every 10 minutes)

About coastal observations | Map of coastal stations | Coastal observations for NSW | Marine services | Other Formats
Station Details ID: 068241 Name: WOLLONGONG AIRPORT Lat: -34.56 Lon: 150.79 Height: 8.0 m
Data from the previous 72 hours. | See also: Recent months at Albion Park
Date/Time
EDT
Temp

°C
Wind Pressure Rain
since 9am
mm
Weather Cloud Vis
km
Sea
Height
m
Swell
Dir
 
Speed
knots
Gust
knots
hPa Trend Height
m
Period
s
Dir
22/08:30pm 15.9 NW 1 4 1019.9 - 0.0 - - 10 - - - -
22/08:00pm 17.8 NNW 3 5 1019.6 - 0.0 - - 10 - - - -
22/07:30pm 18.6 NNE 7 10 1019.5 - 0.0 - - 10 - - - -
22/07:00pm 19.0 NNE 9 13 1019.4 - 0.0 - - 10 - - - -
22/06:30pm 19.4 NNE 11 17 1019.4 - 0.0 - - 10 - - - -
22/06:00pm 19.8 NNE 13 19 1019.5 - 0.0 - - 10 - - - -
22/05:30pm 20.2 NE 12 18 1019.7 - 0.0 - - 10 - - - -
22/05:00pm 20.5 NE 11 20 1019.9 - 0.0 - - 10 - - - -
22/04:30pm 20.6 NE 13 20 1020.0 - 0.0 - - 10 - - - -
22/04:00pm 20.7 NE 14 20 1020.2 - 0.0 - - 10 - - - -
22/03:30pm 20.4 NE 16 23 1020.4 - 0.0 - - 10 - - - -
22/03:00pm 20.8 NE 15 21 1020.8 - 0.0 - - 10 - - - -
22/02:30pm 20.4 NE 19 25 1021.2 - 0.0 - - 10 - - - -
22/02:00pm 20.5 NE 16 22 1022.0 - 0.0 - - 10 - - - -
22/01:30pm 21.1 NE 15 19 1022.5 - 0.0 - - 10 - - - -
22/01:09pm 21.3 ENE 19 23 1022.8 - 0.0 - - 10 - - - -
22/01:00pm 22.7 N 8 13 1023.0 - 0.0 - - 10 - - - -
22/12:30pm 21.7 N 12 17 1023.6 - 0.0 - - 10 - - - -
22/12:00pm 21.2 N 12 17 1024.3 - 0.0 - - 10 - - - -
22/11:30am 21.0 N 12 17 1024.9 - 0.0 - - 10 - - - -
22/11:00am 20.7 N 10 19 1025.4 - 0.0 - - 10 - - - -
22/10:30am 19.6 N 11 16 1025.8 - 0.0 - Partly cloudy 10 - - - -
22/10:00am 18.9 N 12 19 1026.2 - 0.0 - Partly cloudy 10 - - - -
22/09:30am 18.3 N 13 19 1026.4 - 0.0 - Partly cloudy 10 - - - -
22/09:00am 17.5 N 11 15 1026.6 - 0.0 - Partly cloudy 10 - - - -
22/08:30am 17.2 N 12 17 1026.9 - 0.0 - - 10 - - - -
22/08:00am 15.9 NNW 7 9 1027.1 - 0.0 - Partly cloudy 10 - - - -
22/07:30am 14.5 NNW 5 8 1027.2 - 0.0 - Partly cloudy 10 - - - -
22/07:00am 13.3 NW 5 5 1027.3 - 0.0 - Cloudy 10 - - - -
22/06:30am 12.1 NW 5 6 1027.2 - 0.0 - Partly cloudy 10 - - - -
22/06:00am 11.5 W 6 8 1027.1 - 0.0 - Partly cloudy 10 - - - -
22/05:30am 12.2 CALM 0 0 1027.1 - 0.0 - Cloudy 10 - - - -
22/05:00am 12.2 CALM 0 0 1027.1 - 0.0 - Cloudy 10 - - - -
22/04:30am 11.9 CALM 0 0 1027.4 - 0.0 - Cloudy 10 - - - -
22/04:00am 11.7 W 3 5 1027.6 - 0.0 - Cloudy 10 - - - -
22/03:30am 11.3 W 4 5 1027.9 - 0.0 - Cloudy 10 - - - -
22/03:00am 11.4 CALM 0 0 1028.3 - 0.0 - Partly cloudy 10 - - - -
22/02:30am 11.9 CALM 0 0 1028.6 - 0.0 - Partly cloudy 10 - - - -
22/02:00am 12.9 CALM 0 0 1028.9 - 0.0 - Cloudy 10 - - - -
22/01:30am 13.8 W 2 4 1029.3 - 0.0 - Cloudy 10 - - - -
22/01:00am 14.1 W 2 3 1029.9 - 0.0 - Cloudy 10 - - - -
22/12:30am 14.9 NNW 4 5 1030.5 - 0.0 - Cloudy 10 - - - -
22/12:00am 14.8 NW 2 4 1030.8 - 0.0 - Cloudy 10 - - - -
 
Date/Time
EDT
Temp

°C
Wind Pressure Rain
since 9am
mm
Weather Cloud Vis
km
Sea
Height
m
Swell
Dir
 
Speed
knots
Gust
knots
hPa Trend Height
m
Period
s
Dir
21/11:30pm 14.2 W 2 4 1030.9 - 0.0 - Cloudy 10 - - - -
21/11:00pm 14.2 W 3 4 1031.1 - 0.0 - Partly cloudy 10 - - - -
21/10:30pm 14.2 W 4 6 1031.3 - 0.0 - Partly cloudy 10 - - - -
21/10:00pm 14.3 W 3 4 1031.3 - 0.0 - Partly cloudy 10 - - - -
21/09:30pm 14.5 WNW 4 5 1031.3 - 0.0 - Cloudy 10 - - - -
21/09:00pm 14.7 W 6 6 1031.2 - 0.0 - Cloudy 10 - - - -
21/08:30pm 15.4 CALM 0 3 1031.0 - 0.0 - Partly cloudy 10 - - - -
21/08:00pm 16.6 NNE 7 8 1030.7 - 0.0 - Cloudy 10 - - - -
21/07:30pm 16.6 NE 7 10 1030.5 - 0.0 - Cloudy 10 - - - -
21/07:00pm 16.7 NNE 6 8 1030.3 - 0.0 - Cloudy 10 - - - -
21/06:30pm 16.7 NE 5 8 1030.3 - 0.0 - Cloudy 10 - - - -
21/06:00pm 16.7 ENE 7 9 1030.2 - 0.0 - Cloudy 10 - - - -
21/05:30pm 16.8 ENE 7 10 1030.3 - 0.0 - Cloudy 10 - - - -
21/05:00pm 16.8 NE 6 9 1030.4 - 0.0 - Cloudy 10 - - - -
21/04:30pm 17.2 ENE 7 9 1030.4 - 0.0 - Cloudy 10 - - - -
21/04:00pm 17.1 E 8 10 1030.5 - 0.0 - Cloudy 10 - - - -
21/03:30pm 17.0 ENE 7 11 1030.8 - 0.0 - Cloudy 10 - - - -
21/03:00pm 17.1 ENE 8 12 1031.1 - 0.0 - Cloudy 10 - - - -
21/02:30pm 17.3 ENE 7 10 1031.3 - 0.0 - Cloudy 10 - - - -
21/02:00pm 17.2 NE 7 10 1031.8 - 0.0 - Cloudy 10 - - - -
21/01:30pm 17.0 NE 7 10 1032.3 - 0.0 - Cloudy 10 - - - -
21/01:00pm 16.9 NE 6 9 1032.6 - 0.0 - Cloudy 10 - - - -
21/12:30pm 16.6 ENE 8 11 1032.8 - 0.0 - Cloudy 10 - - - -
21/12:00pm 16.7 NNE 8 11 1033.1 - 0.0 - Cloudy 10 - - - -
21/11:30am 16.8 NNE 6 8 1033.2 - 0.0 - Partly cloudy 10 - - - -
21/11:00am 16.7 ENE 6 9 1033.4 - 0.0 - Partly cloudy 10 - - - -
21/10:30am 16.5 NNE 4 6 1033.4 - 0.0 - Cloudy 10 - - - -
21/10:00am 16.1 WNW 3 6 1033.5 - 0.0 - Cloudy 10 - - - -
21/09:30am 15.9 WNW 6 7 1033.3 - 0.0 - Partly cloudy 10 - - - -
21/09:00am 15.5 WNW 5 6 1033.2 - 0.0 - Cloudy 10 - - - -
21/08:30am 14.8 NW 5 6 1032.9 - 0.0 - Partly cloudy 10 - - - -
21/08:00am 15.2 SW 3 4 1032.8 - 0.0 - Partly cloudy 10 - - - -
21/07:30am 14.2 SW 3 5 1032.3 - 0.0 - Partly cloudy 10 - - - -
21/07:00am 13.7 CALM 0 0 1032.2 - 0.0 - Cloudy 10 - - - -
21/06:30am 13.5 CALM 0 3 1031.9 - 0.0 - Partly cloudy 10 - - - -
21/06:00am 13.3 SW 3 4 1031.5 - 0.0 - Cloudy 10 - - - -
21/05:30am 13.2 SW 2 5 1031.5 - 0.0 - Cloudy 10 - - - -
21/05:00am 13.3 SW 4 5 1031.4 - 0.0 - Cloudy 10 - - - -
21/04:30am 13.5 SW 6 7 1031.4 - 0.0 - Partly cloudy 10 - - - -
21/04:00am 13.3 WSW 3 4 1031.6 - 0.0 - Partly cloudy 10 - - - -
21/03:30am 13.1 W 4 5 1031.7 - 0.0 - Cloudy 10 - - - -
21/03:00am 13.3 W 6 7 1031.8 - 0.0 - Cloudy 10 - - - -
21/02:30am 13.5 WSW 4 6 1032.0 - 0.0 - Cloudy 10 - - - -
21/02:00am 13.6 S 4 4 1032.2 - 0.0 - Cloudy 10 - - - -
21/01:30am 13.7 S 3 4 1032.2 - 0.0 - Cloudy 10 - - - -
21/01:00am 13.7 S 5 6 1032.4 - 0.0 - Cloudy 10 - - - -
21/12:30am 13.7 S 4 5 1032.6 - 0.0 - Partly cloudy 10 - - - -
21/12:00am 14.1 S 6 8 1032.6 - 0.0 - Cloudy 10 - - - -
 
Date/Time
EDT
Temp

°C
Wind Pressure Rain
since 9am
mm
Weather Cloud Vis
km
Sea
Height
m
Swell
Dir
 
Speed
knots
Gust
knots
hPa Trend Height
m
Period
s
Dir
20/11:30pm 14.1 SSW 4 6 1032.7 - 0.0 - Partly cloudy 10 - - - -
20/11:07pm 14.3 SSW 3 4 1032.6 - 0.0 - Partly cloudy 10 - - - -
20/11:00pm 14.3 SSW 3 4 1032.7 - 0.0 - Partly cloudy 7 - - - -
20/10:52pm 14.4 SSW 3 5 1032.7 - 0.0 - Partly cloudy 5 - - - -
20/10:30pm 14.5 SSW 4 6 1032.6 - 0.0 - Partly cloudy 10 - - - -
20/10:00pm 14.7 S 5 7 1032.6 - 0.0 - Partly cloudy 10 - - - -
20/09:30pm 14.6 S 5 7 1032.4 - 0.0 - Cloudy 10 - - - -
20/09:00pm 14.7 S 7 9 1032.4 - 0.0 - Cloudy 10 - - - -
20/08:30pm 14.8 S 5 7 1032.2 - 0.0 - Cloudy 10 - - - -
20/08:00pm 14.7 SSW 4 6 1031.8 - 0.0 - Partly cloudy 10 - - - -
20/07:30pm 14.7 S 7 10 1031.6 - 0.0 - Partly cloudy 10 - - - -
20/07:00pm 15.0 S 11 17 1031.3 - 0.0 - Partly cloudy 10 - - - -
20/06:30pm 16.2 S 7 9 1031.0 - 0.0 - Cloudy 10 - - - -
20/06:00pm 16.4 S 6 10 1030.9 - 0.0 - Cloudy 10 - - - -
20/05:30pm 16.6 S 8 11 1030.9 - 0.0 - Cloudy 10 - - - -
20/05:00pm 16.3 S 8 12 1030.9 - 0.0 - Partly cloudy 10 - - - -
20/04:30pm 16.3 S 11 15 1030.9 - 0.0 - Partly cloudy 10 - - - -
20/04:00pm 16.0 S 12 16 1030.9 - 0.0 - Partly cloudy 10 - - - -
20/03:30pm 16.6 S 9 15 1030.8 - 0.0 - Partly cloudy 10 - - - -
20/03:00pm 16.8 S 11 17 1030.7 - 0.0 - Mostly cloudy 10 - - - -
20/02:30pm 17.3 SSW 9 12 1030.7 - 0.0 - Partly cloudy 10 - - - -
20/02:00pm 17.0 S 11 17 1030.9 - 0.0 - Partly cloudy 10 - - - -
20/01:30pm 16.8 S 10 15 1031.1 - 0.0 - Partly cloudy 10 - - - -
20/01:08pm 16.0 S 10 19 1031.2 - 0.0 - Partly cloudy 10 - - - -
20/01:00pm 15.7 S 10 17 1031.2 - 0.0 - Partly cloudy 6 - - - -
20/12:52pm 15.4 SSE 13 18 1031.3 - 0.0 - Partly cloudy 5 - - - -
20/12:40pm 16.1 S 12 18 1031.2 - 0.0 - Partly cloudy 10 - - - -
20/12:30pm 15.6 S 12 19 1031.3 - 0.0 - Partly cloudy 7 - - - -
20/12:20pm 16.2 S 13 19 1031.4 - 0.0 - Partly cloudy 10 - - - -
20/12:17pm 16.2 S 13 19 1031.4 - 0.0 - Partly cloudy 10 - - - -
20/12:03pm 15.6 SSE 12 18 1031.4 - 0.0 - Partly cloudy 5 - - - -
20/12:00pm 15.7 SSE 11 17 1031.4 - 0.0 - Cloudy 7 - - - -
20/11:51am 15.6 S 12 15 1031.4 - 0.0 - Partly cloudy 10 - - - -
20/11:35am 15.8 SSE 14 23 1031.5 - 0.0 - Partly cloudy 5 - - - -
20/11:30am 16.1 SSE 13 20 1031.4 - 0.0 - Partly cloudy 10 - - - -
20/11:00am 17.6 S 11 17 1031.1 - 0.0 - Partly cloudy 10 - - - -
20/10:30am 17.0 S 13 19 1031.2 - 0.0 - Cloudy 10 - - - -
20/10:00am 17.1 S 15 22 1030.9 - 0.0 - Partly cloudy 10 - - - -
20/09:30am 16.8 S 12 20 1030.5 - 0.0 - Cloudy 10 - - - -
20/09:00am 16.8 S 15 27 1029.9 - 0.0 - Cloudy 10 - - - -
20/08:30am 16.3 S 12 23 1029.4 - 0.0 - Partly cloudy 9 - - - -
20/08:00am 17.3 S 14 22 1028.9 - 0.0 - Cloudy 10 - - - -
20/07:30am 17.1 S 11 18 1028.2 - 0.0 - Cloudy 10 - - - -
20/07:00am 17.2 SSE 11 19 1027.7 - 0.0 - Cloudy 10 - - - -
20/06:30am 17.2 S 12 18 1027.0 - 0.0 - Cloudy 10 - - - -
20/06:00am 17.0 S 13 18 1026.3 - 0.0 - Mostly cloudy 10 - - - -
20/05:45am 17.3 S 13 22 1026.0 - 0.0 - Cloudy 10 - - - -
20/05:30am 17.4 SSE 13 23 1025.7 - 0.0 - Partly cloudy 10 - - - -
20/05:09am 17.5 S 17 27 1024.7 - 0.0 - Partly cloudy 10 - - - -
20/05:01am 17.9 SSE 15 23 1024.6 - 0.0 - Partly cloudy 10 - - - -
20/05:00am 18.0 SSE 15 22 1024.6 - 0.0 - Partly cloudy 10 - - - -
20/04:33am 19.4 S 20 30 1023.2 - 0.0 - - 10 - - - -
20/04:30am 20.0 S 23 30 1023.0 - 0.0 - - 10 - - - -
20/04:26am 20.5 S 23 30 1022.4 - 0.0 - - 10 - - - -
20/04:23am 19.6 SSE 7 18 1021.9 - 0.0 - - 10 - - - -
20/04:00am 14.6 SSE 3 6 1020.4 - 0.0 - - 10 - - - -
20/03:30am 14.9 SW 5 6 1020.3 - 0.0 - - 10 - - - -
20/03:00am 13.8 WSW 4 11 1020.3 - 0.0 - Cloudy 10 - - - -
20/02:30am 13.5 SW 3 6 1021.0 - 0.0 - - 10 - - - -
20/02:00am 12.6 SW 4 6 1021.1 - 0.0 - - 10 - - - -
20/01:30am 13.1 SW 3 6 1021.4 - 0.0 - - 10 - - - -
20/01:00am 13.1 W 1 4 1021.3 - 0.0 - - 10 - - - -
20/12:30am 12.2 W 4 6 1021.7 - 0.0 - - 10 - - - -
20/12:00am 13.9 NW 2 4 1021.9 - 0.0 - Mostly clear 10 - - - -
 
Date/Time
EDT
Temp

°C
Wind Pressure Rain
since 9am
mm
Weather Cloud Vis
km
Sea
Height
m
Swell
Dir
 
Speed
knots
Gust
knots
hPa Trend Height
m
Period
s
Dir
19/11:30pm 14.7 W 1 4 1022.4 - 0.0 - - 10 - - - -
19/11:00pm 14.9 CALM 0 0 1022.4 - 0.0 - - 10 - - - -
19/10:30pm 15.3 WNW 1 4 1022.5 - 0.0 - - 10 - - - -
19/10:00pm 16.0 WNW 4 5 1022.5 - 0.0 - - 10 - - - -
19/09:30pm 15.9 W 4 5 1022.5 - 0.0 - - 10 - - - -
19/09:00pm 16.7 N 2 5 1022.4 - 0.0 - - 10 - - - -

Other Formats:

Comma delimited format used in spreadsheet applications
http://www.bom.gov.au/fwo/IDN60701/IDN60701.95748.axf

JavaScript Object Notation format (JSON) in row-major order
http://www.bom.gov.au/fwo/IDN60701/IDN60701.95748.json